KSPF/SPF METAR and TAF weather

Enter ICAO airport designator
Station Type Date Time Source
KSPF METAR 2019/12/09 00:35 UTC NOAA

KSPF 090035Z AUTO 30020G25KT 3/4SM -SN OVC002 M03/M03 A2973 RMK AO2


Station Type Date Time Source
KSPF Decoded METAR 2019/12/09 00:35 UTC NOAA

Spearfish / Clyde Ice, SD, United States (KSPF) 44-29N 103-47W
Dec 08, 2019 - 07:35 PM EST / 2019.12.09 0035 UTC
Wind: from the WNW (300 degrees) at 23 MPH (20 KT) gusting to 29 MPH (25 KT):0
Visibility: 3/4 mile(s):0
Sky conditions: overcast
Weather: light snow
Temperature: 26 F (-3 C)
Windchill: 10 F (-12 C):1
Dew Point: 26 F (-3 C)
Relative Humidity: 100%
Pressure (altimeter): 29.73 in. Hg (1006 hPa)
ob: KSPF 090035Z AUTO 30020G25KT 3/4SM -SN OVC002 M03/M03 A2973 RMK AO2
cycle: 0

Station Type Date Time Source
KSPF TAF UTC NOAA

Error!

Example: see airport list